sensor_id;sensor_type;location;lat;lon;timestamp;P1;durP1;ratioP1;P2;durP2;ratioP2
22603;SDS011;11469;49.024;8.246;2023-08-20T00:02:15;11.90;;;8.35;;
22603;SDS011;11469;49.024;8.246;2023-08-20T00:04:44;8.68;;;7.78;;
22603;SDS011;11469;49.024;8.246;2023-08-20T00:07:13;9.48;;;7.70;;
22603;SDS011;11469;49.024;8.246;2023-08-20T00:09:39;11.68;;;8.07;;
22603;SDS011;11469;49.024;8.246;2023-08-20T00:12:04;11.40;;;7.78;;
22603;SDS011;11469;49.024;8.246;2023-08-20T00:17:18;11.48;;;7.30;;
22603;SDS011;11469;49.024;8.246;2023-08-20T00:19:44;8.90;;;7.25;;
22603;SDS011;11469;49.024;8.246;2023-08-20T00:22:10;13.45;;;8.15;;
22603;SDS011;11469;49.024;8.246;2023-08-20T00:24:36;13.32;;;7.47;;
22603;SDS011;11469;49.024;8.246;2023-08-20T00:27:01;17.65;;;8.63;;
22603;SDS011;11469;49.024;8.246;2023-08-20T00:29:27;9.93;;;7.93;;
22603;SDS011;11469;49.024;8.246;2023-08-20T00:31:52;10.35;;;8.18;;
22603;SDS011;11469;49.024;8.246;2023-08-20T00:34:17;9.25;;;7.68;;
22603;SDS011;11469;49.024;8.246;2023-08-20T00:36:43;9.93;;;7.40;;
22603;SDS011;11469;49.024;8.246;2023-08-20T00:39:08;11.15;;;8.15;;
22603;SDS011;11469;49.024;8.246;2023-08-20T00:41:33;9.68;;;7.72;;
22603;SDS011;11469;49.024;8.246;2023-08-20T00:43:59;11.65;;;7.20;;
22603;SDS011;11469;49.024;8.246;2023-08-20T00:46:24;11.43;;;7.90;;
22603;SDS011;11469;49.024;8.246;2023-08-20T00:48:50;10.80;;;8.07;;
22603;SDS011;11469;49.024;8.246;2023-08-20T00:51:15;13.65;;;8.50;;
22603;SDS011;11469;49.024;8.246;2023-08-20T00:53:41;10.57;;;7.80;;
22603;SDS011;11469;49.024;8.246;2023-08-20T00:56:06;10.55;;;8.30;;
22603;SDS011;11469;49.024;8.246;2023-08-20T00:58:32;19.52;;;7.55;;
22603;SDS011;11469;49.024;8.246;2023-08-20T01:00:58;12.52;;;7.63;;
22603;SDS011;11469;49.024;8.246;2023-08-20T01:03:24;11.20;;;7.80;;
22603;SDS011;11469;49.024;8.246;2023-08-20T01:05:50;14.77;;;7.55;;
22603;SDS011;11469;49.024;8.246;2023-08-20T01:13:54;13.10;;;7.40;;
22603;SDS011;11469;49.024;8.246;2023-08-20T01:16:19;8.38;;;7.35;;
22603;SDS011;11469;49.024;8.246;2023-08-20T01:18:45;8.45;;;7.30;;
22603;SDS011;11469;49.024;8.246;2023-08-20T01:21:17;9.57;;;7.43;;
22603;SDS011;11469;49.024;8.246;2023-08-20T01:24:56;10.13;;;7.65;;
22603;SDS011;11469;49.024;8.246;2023-08-20T01:27:28;11.93;;;7.63;;
22603;SDS011;11469;49.024;8.246;2023-08-20T01:29:56;10.02;;;7.53;;
22603;SDS011;11469;49.024;8.246;2023-08-20T01:32:22;12.38;;;6.85;;
22603;SDS011;11469;49.024;8.246;2023-08-20T01:34:49;10.38;;;6.20;;
22603;SDS011;11469;49.024;8.246;2023-08-20T01:37:14;7.68;;;5.80;;
22603;SDS011;11469;49.024;8.246;2023-08-20T01:39:40;7.25;;;5.60;;
22603;SDS011;11469;49.024;8.246;2023-08-20T01:42:05;8.15;;;6.47;;
22603;SDS011;11469;49.024;8.246;2023-08-20T01:44:31;12.07;;;7.75;;
22603;SDS011;11469;49.024;8.246;2023-08-20T01:46:56;11.73;;;7.55;;
22603;SDS011;11469;49.024;8.246;2023-08-20T01:49:22;14.70;;;7.65;;
22603;SDS011;11469;49.024;8.246;2023-08-20T01:51:48;16.48;;;8.65;;
22603;SDS011;11469;49.024;8.246;2023-08-20T01:54:13;8.77;;;7.82;;
22603;SDS011;11469;49.024;8.246;2023-08-20T01:56:39;9.45;;;7.97;;
22603;SDS011;11469;49.024;8.246;2023-08-20T01:59:04;9.90;;;7.40;;
22603;SDS011;11469;49.024;8.246;2023-08-20T02:01:29;9.82;;;7.97;;
22603;SDS011;11469;49.024;8.246;2023-08-20T02:03:55;12.13;;;7.82;;
22603;SDS011;11469;49.024;8.246;2023-08-20T02:06:20;10.07;;;7.85;;
22603;SDS011;11469;49.024;8.246;2023-08-20T02:08:46;12.63;;;8.27;;
22603;SDS011;11469;49.024;8.246;2023-08-20T02:11:12;10.07;;;7.78;;
22603;SDS011;11469;49.024;8.246;2023-08-20T02:13:37;9.98;;;8.32;;
22603;SDS011;11469;49.024;8.246;2023-08-20T02:16:03;9.65;;;8.18;;
22603;SDS011;11469;49.024;8.246;2023-08-20T02:18:30;9.75;;;7.20;;
22603;SDS011;11469;49.024;8.246;2023-08-20T02:20:56;9.65;;;8.07;;
22603;SDS011;11469;49.024;8.246;2023-08-20T02:23:22;9.52;;;7.75;;
22603;SDS011;11469;49.024;8.246;2023-08-20T02:25:47;15.48;;;8.95;;
22603;SDS011;11469;49.024;8.246;2023-08-20T02:28:13;16.58;;;8.98;;
22603;SDS011;11469;49.024;8.246;2023-08-20T02:30:43;10.77;;;8.32;;
22603;SDS011;11469;49.024;8.246;2023-08-20T02:33:10;11.13;;;8.15;;
22603;SDS011;11469;49.024;8.246;2023-08-20T02:35:38;10.27;;;7.97;;
22603;SDS011;11469;49.024;8.246;2023-08-20T02:38:04;17.02;;;8.75;;
22603;SDS011;11469;49.024;8.246;2023-08-20T02:40:31;13.75;;;7.55;;
22603;SDS011;11469;49.024;8.246;2023-08-20T02:42:56;11.52;;;7.40;;
22603;SDS011;11469;49.024;8.246;2023-08-20T02:45:21;12.07;;;8.02;;
22603;SDS011;11469;49.024;8.246;2023-08-20T02:47:47;13.70;;;8.07;;
22603;SDS011;11469;49.024;8.246;2023-08-20T02:50:13;8.25;;;7.07;;
22603;SDS011;11469;49.024;8.246;2023-08-20T02:52:39;9.75;;;7.93;;
22603;SDS011;11469;49.024;8.246;2023-08-20T02:55:04;10.85;;;7.72;;
22603;SDS011;11469;49.024;8.246;2023-08-20T02:57:30;10.02;;;7.78;;
22603;SDS011;11469;49.024;8.246;2023-08-20T02:59:56;11.43;;;8.30;;
22603;SDS011;11469;49.024;8.246;2023-08-20T03:02:22;8.95;;;7.80;;
22603;SDS011;11469;49.024;8.246;2023-08-20T03:04:47;13.55;;;8.80;;
22603;SDS011;11469;49.024;8.246;2023-08-20T03:07:13;15.80;;;8.50;;
22603;SDS011;11469;49.024;8.246;2023-08-20T03:09:38;11.05;;;8.23;;
22603;SDS011;11469;49.024;8.246;2023-08-20T03:12:03;11.82;;;7.75;;
22603;SDS011;11469;49.024;8.246;2023-08-20T03:14:29;12.48;;;7.78;;
22603;SDS011;11469;49.024;8.246;2023-08-20T03:16:54;10.57;;;7.78;;
22603;SDS011;11469;49.024;8.246;2023-08-20T03:19:20;9.68;;;7.88;;
22603;SDS011;11469;49.024;8.246;2023-08-20T03:21:45;11.70;;;7.82;;
22603;SDS011;11469;49.024;8.246;2023-08-20T03:24:11;12.38;;;8.40;;
22603;SDS011;11469;49.024;8.246;2023-08-20T03:26:36;11.60;;;8.27;;
22603;SDS011;11469;49.024;8.246;2023-08-20T03:29:01;20.13;;;7.88;;
22603;SDS011;11469;49.024;8.246;2023-08-20T03:31:28;20.33;;;7.97;;
22603;SDS011;11469;49.024;8.246;2023-08-20T03:33:53;9.82;;;7.40;;
22603;SDS011;11469;49.024;8.246;2023-08-20T03:36:19;20.52;;;8.90;;
22603;SDS011;11469;49.024;8.246;2023-08-20T03:38:44;14.35;;;7.85;;
22603;SDS011;11469;49.024;8.246;2023-08-20T03:41:09;10.48;;;7.95;;
22603;SDS011;11469;49.024;8.246;2023-08-20T03:43:35;15.88;;;8.07;;
22603;SDS011;11469;49.024;8.246;2023-08-20T03:46:01;15.00;;;8.32;;
22603;SDS011;11469;49.024;8.246;2023-08-20T03:48:27;12.45;;;7.75;;
22603;SDS011;11469;49.024;8.246;2023-08-20T03:50:52;14.95;;;8.65;;
22603;SDS011;11469;49.024;8.246;2023-08-20T03:53:18;15.68;;;7.88;;
22603;SDS011;11469;49.024;8.246;2023-08-20T03:55:49;16.77;;;9.77;;
22603;SDS011;11469;49.024;8.246;2023-08-20T03:58:15;17.33;;;9.10;;
22603;SDS011;11469;49.024;8.246;2023-08-20T04:00:41;10.35;;;8.43;;
22603;SDS011;11469;49.024;8.246;2023-08-20T04:03:07;20.17;;;8.60;;
22603;SDS011;11469;49.024;8.246;2023-08-20T04:05:36;14.70;;;9.02;;
22603;SDS011;11469;49.024;8.246;2023-08-20T04:08:02;15.13;;;9.07;;
22603;SDS011;11469;49.024;8.246;2023-08-20T04:10:28;18.77;;;9.80;;
22603;SDS011;11469;49.024;8.246;2023-08-20T04:12:54;18.55;;;8.95;;
22603;SDS011;11469;49.024;8.246;2023-08-20T04:15:19;22.70;;;8.93;;
22603;SDS011;11469;49.024;8.246;2023-08-20T04:17:45;18.98;;;8.88;;
22603;SDS011;11469;49.024;8.246;2023-08-20T04:20:10;12.85;;;8.48;;
22603;SDS011;11469;49.024;8.246;2023-08-20T04:22:36;13.52;;;9.00;;
22603;SDS011;11469;49.024;8.246;2023-08-20T04:25:02;14.00;;;8.18;;
22603;SDS011;11469;49.024;8.246;2023-08-20T04:27:28;16.67;;;8.40;;
22603;SDS011;11469;49.024;8.246;2023-08-20T04:29:53;13.30;;;8.70;;
22603;SDS011;11469;49.024;8.246;2023-08-20T04:32:21;13.07;;;9.30;;
22603;SDS011;11469;49.024;8.246;2023-08-20T04:34:46;11.85;;;8.93;;
22603;SDS011;11469;49.024;8.246;2023-08-20T04:37:13;10.07;;;7.85;;
22603;SDS011;11469;49.024;8.246;2023-08-20T04:39:38;10.75;;;8.48;;
22603;SDS011;11469;49.024;8.246;2023-08-20T04:42:03;12.07;;;8.05;;
22603;SDS011;11469;49.024;8.246;2023-08-20T04:44:29;11.60;;;8.73;;
22603;SDS011;11469;49.024;8.246;2023-08-20T04:46:55;14.75;;;8.50;;
22603;SDS011;11469;49.024;8.246;2023-08-20T04:49:21;14.45;;;8.40;;
22603;SDS011;11469;49.024;8.246;2023-08-20T04:51:46;10.05;;;8.27;;
22603;SDS011;11469;49.024;8.246;2023-08-20T04:54:11;8.90;;;7.75;;
22603;SDS011;11469;49.024;8.246;2023-08-20T04:56:37;11.85;;;8.40;;
22603;SDS011;11469;49.024;8.246;2023-08-20T04:59:02;12.57;;;8.45;;
22603;SDS011;11469;49.024;8.246;2023-08-20T05:01:28;12.95;;;7.93;;
22603;SDS011;11469;49.024;8.246;2023-08-20T05:03:53;11.23;;;8.35;;
22603;SDS011;11469;49.024;8.246;2023-08-20T05:06:18;14.25;;;8.35;;
22603;SDS011;11469;49.024;8.246;2023-08-20T05:08:44;11.55;;;8.23;;
22603;SDS011;11469;49.024;8.246;2023-08-20T05:11:09;14.93;;;8.07;;
22603;SDS011;11469;49.024;8.246;2023-08-20T05:13:35;14.63;;;9.13;;
22603;SDS011;11469;49.024;8.246;2023-08-20T05:16:00;14.15;;;8.95;;
22603;SDS011;11469;49.024;8.246;2023-08-20T05:18:25;15.70;;;9.15;;
22603;SDS011;11469;49.024;8.246;2023-08-20T05:20:52;16.25;;;8.57;;
22603;SDS011;11469;49.024;8.246;2023-08-20T05:23:17;10.95;;;8.23;;
22603;SDS011;11469;49.024;8.246;2023-08-20T05:25:42;13.98;;;9.68;;
22603;SDS011;11469;49.024;8.246;2023-08-20T05:28:08;16.83;;;8.95;;
22603;SDS011;11469;49.024;8.246;2023-08-20T05:30:33;16.55;;;8.98;;
22603;SDS011;11469;49.024;8.246;2023-08-20T05:32:59;10.25;;;7.78;;
22603;SDS011;11469;49.024;8.246;2023-08-20T05:35:24;10.10;;;8.13;;
22603;SDS011;11469;49.024;8.246;2023-08-20T05:37:50;14.43;;;8.73;;
22603;SDS011;11469;49.024;8.246;2023-08-20T05:40:15;18.42;;;9.50;;
22603;SDS011;11469;49.024;8.246;2023-08-20T05:42:41;15.43;;;8.35;;
22603;SDS011;11469;49.024;8.246;2023-08-20T05:45:06;11.27;;;8.20;;
22603;SDS011;11469;49.024;8.246;2023-08-20T05:47:32;12.25;;;8.95;;
22603;SDS011;11469;49.024;8.246;2023-08-20T05:49:58;17.88;;;10.07;;
22603;SDS011;11469;49.024;8.246;2023-08-20T05:52:23;18.30;;;9.20;;
22603;SDS011;11469;49.024;8.246;2023-08-20T05:54:48;12.70;;;9.13;;
22603;SDS011;11469;49.024;8.246;2023-08-20T05:57:14;13.95;;;9.50;;
22603;SDS011;11469;49.024;8.246;2023-08-20T05:59:39;13.43;;;9.50;;
22603;SDS011;11469;49.024;8.246;2023-08-20T06:02:05;12.23;;;8.88;;
22603;SDS011;11469;49.024;8.246;2023-08-20T06:04:31;11.35;;;8.63;;
22603;SDS011;11469;49.024;8.246;2023-08-20T06:06:56;15.02;;;9.32;;
22603;SDS011;11469;49.024;8.246;2023-08-20T06:09:21;12.10;;;8.75;;
22603;SDS011;11469;49.024;8.246;2023-08-20T06:11:47;12.55;;;8.73;;
22603;SDS011;11469;49.024;8.246;2023-08-20T06:14:13;11.45;;;9.07;;
22603;SDS011;11469;49.024;8.246;2023-08-20T06:16:38;15.65;;;8.88;;
22603;SDS011;11469;49.024;8.246;2023-08-20T06:19:04;10.88;;;8.98;;
22603;SDS011;11469;49.024;8.246;2023-08-20T06:21:29;12.82;;;8.40;;
22603;SDS011;11469;49.024;8.246;2023-08-20T06:23:55;12.77;;;8.55;;
22603;SDS011;11469;49.024;8.246;2023-08-20T06:26:20;16.23;;;9.25;;
22603;SDS011;11469;49.024;8.246;2023-08-20T06:28:45;13.50;;;8.85;;
22603;SDS011;11469;49.024;8.246;2023-08-20T06:31:11;16.92;;;9.15;;
22603;SDS011;11469;49.024;8.246;2023-08-20T06:33:36;21.77;;;9.30;;
22603;SDS011;11469;49.024;8.246;2023-08-20T06:36:02;13.95;;;8.77;;
22603;SDS011;11469;49.024;8.246;2023-08-20T06:38:27;13.13;;;8.93;;
22603;SDS011;11469;49.024;8.246;2023-08-20T06:40:53;17.55;;;9.30;;
22603;SDS011;11469;49.024;8.246;2023-08-20T06:43:18;19.23;;;9.82;;
22603;SDS011;11469;49.024;8.246;2023-08-20T06:45:46;14.93;;;9.07;;
22603;SDS011;11469;49.024;8.246;2023-08-20T06:48:11;22.30;;;10.65;;
22603;SDS011;11469;49.024;8.246;2023-08-20T06:50:37;12.68;;;8.90;;
22603;SDS011;11469;49.024;8.246;2023-08-20T06:53:03;14.45;;;9.63;;
22603;SDS011;11469;49.024;8.246;2023-08-20T06:55:28;12.52;;;9.63;;
22603;SDS011;11469;49.024;8.246;2023-08-20T06:57:54;18.13;;;9.23;;
22603;SDS011;11469;49.024;8.246;2023-08-20T07:00:19;12.57;;;8.75;;
22603;SDS011;11469;49.024;8.246;2023-08-20T07:02:45;14.70;;;9.30;;
22603;SDS011;11469;49.024;8.246;2023-08-20T07:05:10;13.00;;;8.48;;
22603;SDS011;11469;49.024;8.246;2023-08-20T07:07:36;11.15;;;7.95;;
22603;SDS011;11469;49.024;8.246;2023-08-20T07:10:01;15.32;;;8.93;;
22603;SDS011;11469;49.024;8.246;2023-08-20T07:12:28;21.60;;;8.63;;
22603;SDS011;11469;49.024;8.246;2023-08-20T07:14:54;20.73;;;8.80;;
22603;SDS011;11469;49.024;8.246;2023-08-20T07:17:19;14.48;;;8.30;;
22603;SDS011;11469;49.024;8.246;2023-08-20T07:19:44;20.55;;;8.65;;
22603;SDS011;11469;49.024;8.246;2023-08-20T07:22:10;18.30;;;8.35;;
22603;SDS011;11469;49.024;8.246;2023-08-20T07:24:35;15.45;;;8.05;;
22603;SDS011;11469;49.024;8.246;2023-08-20T07:27:01;15.00;;;7.50;;
22603;SDS011;11469;49.024;8.246;2023-08-20T07:29:29;16.13;;;8.00;;
22603;SDS011;11469;49.024;8.246;2023-08-20T07:31:55;11.75;;;7.00;;
22603;SDS011;11469;49.024;8.246;2023-08-20T07:34:21;13.05;;;8.05;;
22603;SDS011;11469;49.024;8.246;2023-08-20T07:36:46;15.68;;;8.30;;
22603;SDS011;11469;49.024;8.246;2023-08-20T07:39:12;11.20;;;8.25;;
22603;SDS011;11469;49.024;8.246;2023-08-20T07:41:39;14.40;;;8.57;;
22603;SDS011;11469;49.024;8.246;2023-08-20T07:44:05;12.05;;;8.10;;
22603;SDS011;11469;49.024;8.246;2023-08-20T07:46:30;16.80;;;8.15;;
22603;SDS011;11469;49.024;8.246;2023-08-20T07:48:56;22.00;;;7.68;;
22603;SDS011;11469;49.024;8.246;2023-08-20T07:51:21;16.35;;;8.20;;
22603;SDS011;11469;49.024;8.246;2023-08-20T07:53:47;16.55;;;7.70;;
22603;SDS011;11469;49.024;8.246;2023-08-20T07:56:12;9.80;;;7.20;;
22603;SDS011;11469;49.024;8.246;2023-08-20T07:58:38;10.90;;;7.90;;
22603;SDS011;11469;49.024;8.246;2023-08-20T08:01:03;13.95;;;7.75;;
22603;SDS011;11469;49.024;8.246;2023-08-20T08:03:29;18.77;;;8.57;;
22603;SDS011;11469;49.024;8.246;2023-08-20T08:05:54;12.90;;;8.02;;
22603;SDS011;11469;49.024;8.246;2023-08-20T08:08:20;17.00;;;8.55;;
22603;SDS011;11469;49.024;8.246;2023-08-20T08:10:46;14.32;;;7.85;;
22603;SDS011;11469;49.024;8.246;2023-08-20T08:13:13;17.58;;;7.35;;
22603;SDS011;11469;49.024;8.246;2023-08-20T08:15:39;13.48;;;7.43;;
22603;SDS011;11469;49.024;8.246;2023-08-20T08:18:05;14.15;;;7.60;;
22603;SDS011;11469;49.024;8.246;2023-08-20T08:20:30;11.93;;;6.90;;
22603;SDS011;11469;49.024;8.246;2023-08-20T08:22:56;10.05;;;6.63;;
22603;SDS011;11469;49.024;8.246;2023-08-20T08:25:21;14.70;;;7.00;;
22603;SDS011;11469;49.024;8.246;2023-08-20T08:27:47;8.73;;;6.50;;
22603;SDS011;11469;49.024;8.246;2023-08-20T08:30:13;15.57;;;7.00;;
22603;SDS011;11469;49.024;8.246;2023-08-20T08:32:39;10.05;;;6.53;;
22603;SDS011;11469;49.024;8.246;2023-08-20T08:35:05;12.43;;;6.50;;
22603;SDS011;11469;49.024;8.246;2023-08-20T08:37:31;13.05;;;7.10;;
22603;SDS011;11469;49.024;8.246;2023-08-20T08:39:56;9.82;;;6.30;;
22603;SDS011;11469;49.024;8.246;2023-08-20T08:42:22;10.98;;;6.15;;
22603;SDS011;11469;49.024;8.246;2023-08-20T08:44:49;9.80;;;6.88;;
22603;SDS011;11469;49.024;8.246;2023-08-20T08:47:15;13.48;;;7.38;;
22603;SDS011;11469;49.024;8.246;2023-08-20T08:49:41;14.45;;;7.53;;
22603;SDS011;11469;49.024;8.246;2023-08-20T08:52:08;11.52;;;6.40;;
22603;SDS011;11469;49.024;8.246;2023-08-20T08:54:36;13.20;;;5.97;;
22603;SDS011;11469;49.024;8.246;2023-08-20T08:57:01;12.05;;;6.30;;
22603;SDS011;11469;49.024;8.246;2023-08-20T08:59:27;9.07;;;5.97;;
22603;SDS011;11469;49.024;8.246;2023-08-20T09:01:52;14.90;;;6.55;;
22603;SDS011;11469;49.024;8.246;2023-08-20T09:04:19;17.23;;;5.55;;
22603;SDS011;11469;49.024;8.246;2023-08-20T09:06:48;14.85;;;6.55;;
22603;SDS011;11469;49.024;8.246;2023-08-20T09:09:16;11.02;;;6.03;;
22603;SDS011;11469;49.024;8.246;2023-08-20T09:11:43;12.80;;;6.47;;
22603;SDS011;11469;49.024;8.246;2023-08-20T09:14:19;10.45;;;6.45;;
22603;SDS011;11469;49.024;8.246;2023-08-20T09:19:22;13.50;;;7.40;;
22603;SDS011;11469;49.024;8.246;2023-08-20T09:21:47;12.18;;;6.65;;
22603;SDS011;11469;49.024;8.246;2023-08-20T09:24:13;14.52;;;7.68;;
22603;SDS011;11469;49.024;8.246;2023-08-20T09:26:39;10.35;;;6.65;;
22603;SDS011;11469;49.024;8.246;2023-08-20T09:29:04;11.75;;;7.07;;
22603;SDS011;11469;49.024;8.246;2023-08-20T09:31:37;15.43;;;7.22;;
22603;SDS011;11469;49.024;8.246;2023-08-20T09:34:04;13.20;;;6.80;;
22603;SDS011;11469;49.024;8.246;2023-08-20T09:36:30;12.32;;;6.43;;
22603;SDS011;11469;49.024;8.246;2023-08-20T09:39:00;16.77;;;6.80;;
22603;SDS011;11469;49.024;8.246;2023-08-20T09:41:27;13.60;;;7.30;;
22603;SDS011;11469;49.024;8.246;2023-08-20T09:43:57;12.38;;;6.57;;
22603;SDS011;11469;49.024;8.246;2023-08-20T09:46:27;10.90;;;6.10;;
22603;SDS011;11469;49.024;8.246;2023-08-20T09:48:55;12.43;;;6.30;;
22603;SDS011;11469;49.024;8.246;2023-08-20T09:51:24;11.82;;;6.43;;
22603;SDS011;11469;49.024;8.246;2023-08-20T09:56:37;10.50;;;6.50;;
22603;SDS011;11469;49.024;8.246;2023-08-20T09:59:04;14.15;;;6.60;;
22603;SDS011;11469;49.024;8.246;2023-08-20T10:01:30;10.57;;;6.28;;
22603;SDS011;11469;49.024;8.246;2023-08-20T10:03:56;15.00;;;4.97;;
22603;SDS011;11469;49.024;8.246;2023-08-20T10:06:22;13.30;;;5.82;;
22603;SDS011;11469;49.024;8.246;2023-08-20T10:08:48;9.90;;;5.47;;
22603;SDS011;11469;49.024;8.246;2023-08-20T10:11:16;11.23;;;6.85;;
22603;SDS011;11469;49.024;8.246;2023-08-20T10:13:41;13.57;;;5.97;;
22603;SDS011;11469;49.024;8.246;2023-08-20T10:16:07;16.65;;;5.80;;
22603;SDS011;11469;49.024;8.246;2023-08-20T10:18:34;12.45;;;5.68;;
22603;SDS011;11469;49.024;8.246;2023-08-20T10:21:00;13.18;;;6.72;;
22603;SDS011;11469;49.024;8.246;2023-08-20T10:23:26;9.40;;;6.18;;
22603;SDS011;11469;49.024;8.246;2023-08-20T10:25:52;11.05;;;6.47;;
22603;SDS011;11469;49.024;8.246;2023-08-20T10:28:20;12.48;;;5.47;;
22603;SDS011;11469;49.024;8.246;2023-08-20T10:36:17;9.30;;;5.65;;
22603;SDS011;11469;49.024;8.246;2023-08-20T10:38:47;8.90;;;5.03;;
22603;SDS011;11469;49.024;8.246;2023-08-20T10:41:14;9.73;;;5.53;;
22603;SDS011;11469;49.024;8.246;2023-08-20T10:43:48;9.02;;;5.28;;
22603;SDS011;11469;49.024;8.246;2023-08-20T10:46:16;10.45;;;5.38;;
22603;SDS011;11469;49.024;8.246;2023-08-20T10:48:47;7.78;;;5.07;;
22603;SDS011;11469;49.024;8.246;2023-08-20T10:51:32;8.60;;;5.03;;
22603;SDS011;11469;49.024;8.246;2023-08-20T10:57:09;14.50;;;5.30;;
22603;SDS011;11469;49.024;8.246;2023-08-20T10:59:27;9.15;;;4.72;;
22603;SDS011;11469;49.024;8.246;2023-08-20T11:01:58;8.95;;;4.97;;
22603;SDS011;11469;49.024;8.246;2023-08-20T11:04:27;11.88;;;4.93;;
22603;SDS011;11469;49.024;8.246;2023-08-20T11:06:57;12.73;;;4.90;;
22603;SDS011;11469;49.024;8.246;2023-08-20T11:09:23;13.05;;;4.68;;
22603;SDS011;11469;49.024;8.246;2023-08-20T11:11:50;11.75;;;5.50;;
22603;SDS011;11469;49.024;8.246;2023-08-20T11:14:17;7.38;;;4.63;;
22603;SDS011;11469;49.024;8.246;2023-08-20T11:16:44;9.52;;;4.72;;
22603;SDS011;11469;49.024;8.246;2023-08-20T11:19:10;12.70;;;4.85;;
22603;SDS011;11469;49.024;8.246;2023-08-20T11:21:40;8.60;;;4.88;;
22603;SDS011;11469;49.024;8.246;2023-08-20T11:24:06;9.55;;;5.43;;
22603;SDS011;11469;49.024;8.246;2023-08-20T11:26:33;10.98;;;5.00;;
22603;SDS011;11469;49.024;8.246;2023-08-20T11:28:59;12.63;;;4.95;;
22603;SDS011;11469;49.024;8.246;2023-08-20T11:31:25;9.23;;;5.18;;
22603;SDS011;11469;49.024;8.246;2023-08-20T11:33:51;8.75;;;4.90;;
22603;SDS011;11469;49.024;8.246;2023-08-20T11:36:16;12.85;;;5.20;;
22603;SDS011;11469;49.024;8.246;2023-08-20T11:38:51;9.38;;;4.80;;
22603;SDS011;11469;49.024;8.246;2023-08-20T11:41:18;9.13;;;4.60;;
22603;SDS011;11469;49.024;8.246;2023-08-20T11:43:46;9.30;;;5.05;;
22603;SDS011;11469;49.024;8.246;2023-08-20T11:46:13;10.02;;;4.85;;
22603;SDS011;11469;49.024;8.246;2023-08-20T11:48:57;9.40;;;4.90;;
22603;SDS011;11469;49.024;8.246;2023-08-20T11:51:51;10.60;;;5.32;;
22603;SDS011;11469;49.024;8.246;2023-08-20T11:54:16;9.27;;;4.85;;
22603;SDS011;11469;49.024;8.246;2023-08-20T11:56:49;12.98;;;5.47;;
22603;SDS011;11469;49.024;8.246;2023-08-20T11:59:16;11.98;;;4.85;;
22603;SDS011;11469;49.024;8.246;2023-08-20T12:01:54;13.25;;;5.03;;
22603;SDS011;11469;49.024;8.246;2023-08-20T12:04:23;12.98;;;5.45;;
22603;SDS011;11469;49.024;8.246;2023-08-20T12:07:01;12.65;;;4.95;;
22603;SDS011;11469;49.024;8.246;2023-08-20T12:09:29;7.55;;;5.38;;
22603;SDS011;11469;49.024;8.246;2023-08-20T12:11:54;11.27;;;4.72;;
22603;SDS011;11469;49.024;8.246;2023-08-20T12:14:21;8.15;;;4.85;;
22603;SDS011;11469;49.024;8.246;2023-08-20T12:16:46;11.55;;;4.88;;
22603;SDS011;11469;49.024;8.246;2023-08-20T12:19:12;8.77;;;4.43;;
22603;SDS011;11469;49.024;8.246;2023-08-20T12:21:41;11.52;;;4.68;;
22603;SDS011;11469;49.024;8.246;2023-08-20T12:24:08;8.85;;;4.55;;
22603;SDS011;11469;49.024;8.246;2023-08-20T12:26:34;8.93;;;4.80;;
22603;SDS011;11469;49.024;8.246;2023-08-20T12:29:01;10.20;;;4.35;;
22603;SDS011;11469;49.024;8.246;2023-08-20T12:31:27;8.18;;;4.85;;
22603;SDS011;11469;49.024;8.246;2023-08-20T12:33:52;11.10;;;4.53;;
22603;SDS011;11469;49.024;8.246;2023-08-20T12:36:17;8.55;;;4.30;;
22603;SDS011;11469;49.024;8.246;2023-08-20T12:38:43;10.48;;;4.38;;
22603;SDS011;11469;49.024;8.246;2023-08-20T12:41:08;11.15;;;4.25;;
22603;SDS011;11469;49.024;8.246;2023-08-20T12:43:34;15.25;;;4.70;;
22603;SDS011;11469;49.024;8.246;2023-08-20T12:45:59;7.70;;;3.85;;
22603;SDS011;11469;49.024;8.246;2023-08-20T12:48:25;8.73;;;4.53;;
22603;SDS011;11469;49.024;8.246;2023-08-20T12:50:50;9.48;;;4.63;;
22603;SDS011;11469;49.024;8.246;2023-08-20T12:53:16;6.85;;;3.95;;
22603;SDS011;11469;49.024;8.246;2023-08-20T12:55:41;9.82;;;4.43;;
22603;SDS011;11469;49.024;8.246;2023-08-20T12:58:06;8.25;;;4.47;;
22603;SDS011;11469;49.024;8.246;2023-08-20T13:00:32;6.70;;;4.43;;
22603;SDS011;11469;49.024;8.246;2023-08-20T13:02:58;11.43;;;4.72;;
22603;SDS011;11469;49.024;8.246;2023-08-20T13:05:24;9.80;;;4.38;;
22603;SDS011;11469;49.024;8.246;2023-08-20T13:07:51;9.90;;;4.22;;
22603;SDS011;11469;49.024;8.246;2023-08-20T13:10:17;7.70;;;4.40;;
22603;SDS011;11469;49.024;8.246;2023-08-20T13:12:45;6.30;;;4.10;;
22603;SDS011;11469;49.024;8.246;2023-08-20T13:15:15;11.80;;;4.07;;
22603;SDS011;11469;49.024;8.246;2023-08-20T13:17:42;6.78;;;3.83;;
22603;SDS011;11469;49.024;8.246;2023-08-20T13:20:08;16.80;;;4.00;;
22603;SDS011;11469;49.024;8.246;2023-08-20T13:22:33;9.52;;;3.45;;
22603;SDS011;11469;49.024;8.246;2023-08-20T13:24:59;11.48;;;3.70;;
22603;SDS011;11469;49.024;8.246;2023-08-20T13:27:24;8.82;;;3.88;;
22603;SDS011;11469;49.024;8.246;2023-08-20T13:29:50;9.98;;;3.10;;
22603;SDS011;11469;49.024;8.246;2023-08-20T13:32:16;6.63;;;3.58;;
22603;SDS011;11469;49.024;8.246;2023-08-20T13:34:41;6.72;;;3.45;;
22603;SDS011;11469;49.024;8.246;2023-08-20T13:37:06;8.07;;;3.10;;
22603;SDS011;11469;49.024;8.246;2023-08-20T13:39:32;5.25;;;2.95;;
22603;SDS011;11469;49.024;8.246;2023-08-20T13:41:57;6.82;;;3.42;;
22603;SDS011;11469;49.024;8.246;2023-08-20T13:44:23;11.48;;;3.25;;
22603;SDS011;11469;49.024;8.246;2023-08-20T13:46:48;5.55;;;3.28;;
22603;SDS011;11469;49.024;8.246;2023-08-20T13:49:13;11.45;;;4.00;;
22603;SDS011;11469;49.024;8.246;2023-08-20T13:51:39;6.03;;;3.20;;
22603;SDS011;11469;49.024;8.246;2023-08-20T13:54:04;5.55;;;3.40;;
22603;SDS011;11469;49.024;8.246;2023-08-20T13:56:30;6.57;;;3.60;;
22603;SDS011;11469;49.024;8.246;2023-08-20T13:58:55;6.75;;;3.17;;
22603;SDS011;11469;49.024;8.246;2023-08-20T14:01:21;6.07;;;3.08;;
22603;SDS011;11469;49.024;8.246;2023-08-20T14:03:46;8.48;;;3.10;;
22603;SDS011;11469;49.024;8.246;2023-08-20T14:06:12;9.88;;;3.47;;
22603;SDS011;11469;49.024;8.246;2023-08-20T14:08:37;14.77;;;3.15;;
22603;SDS011;11469;49.024;8.246;2023-08-20T14:11:02;7.35;;;3.28;;
22603;SDS011;11469;49.024;8.246;2023-08-20T14:13:28;5.95;;;2.90;;
22603;SDS011;11469;49.024;8.246;2023-08-20T14:15:53;11.80;;;3.28;;
22603;SDS011;11469;49.024;8.246;2023-08-20T14:18:19;10.88;;;3.05;;
22603;SDS011;11469;49.024;8.246;2023-08-20T14:20:44;8.00;;;3.53;;
22603;SDS011;11469;49.024;8.246;2023-08-20T14:23:09;10.48;;;3.28;;
22603;SDS011;11469;49.024;8.246;2023-08-20T14:25:35;8.65;;;2.97;;
22603;SDS011;11469;49.024;8.246;2023-08-20T14:28:00;14.70;;;2.90;;
22603;SDS011;11469;49.024;8.246;2023-08-20T14:30:26;8.88;;;3.40;;
22603;SDS011;11469;49.024;8.246;2023-08-20T14:32:52;8.02;;;3.25;;
22603;SDS011;11469;49.024;8.246;2023-08-20T14:35:18;8.30;;;3.42;;
22603;SDS011;11469;49.024;8.246;2023-08-20T14:37:44;8.25;;;2.92;;
22603;SDS011;11469;49.024;8.246;2023-08-20T14:40:10;8.38;;;3.25;;
22603;SDS011;11469;49.024;8.246;2023-08-20T14:42:36;6.55;;;3.35;;
22603;SDS011;11469;49.024;8.246;2023-08-20T14:45:01;7.13;;;3.13;;
22603;SDS011;11469;49.024;8.246;2023-08-20T14:47:28;10.50;;;3.80;;
22603;SDS011;11469;49.024;8.246;2023-08-20T14:49:54;12.63;;;3.95;;
22603;SDS011;11469;49.024;8.246;2023-08-20T14:52:19;11.82;;;3.70;;
22603;SDS011;11469;49.024;8.246;2023-08-20T14:54:45;8.77;;;3.70;;
22603;SDS011;11469;49.024;8.246;2023-08-20T14:57:11;9.85;;;4.05;;